sensor_id;sensor_type;location;lat;lon;timestamp;P1;durP1;ratioP1;P2;durP2;ratioP2
19887;SDS011;10106;51.332;12.336;2023-02-11T00:01:53;17.23;;;9.23;;
19887;SDS011;10106;51.332;12.336;2023-02-11T00:04:19;23.70;;;9.63;;
19887;SDS011;10106;51.332;12.336;2023-02-11T00:06:44;25.33;;;8.10;;
19887;SDS011;10106;51.332;12.336;2023-02-11T00:09:10;35.27;;;9.47;;
19887;SDS011;10106;51.332;12.336;2023-02-11T00:11:35;17.80;;;7.87;;
19887;SDS011;10106;51.332;12.336;2023-02-11T00:14:03;30.37;;;10.13;;
19887;SDS011;10106;51.332;12.336;2023-02-11T00:16:31;21.27;;;9.10;;
19887;SDS011;10106;51.332;12.336;2023-02-11T00:18:58;20.63;;;9.30;;
19887;SDS011;10106;51.332;12.336;2023-02-11T00:21:24;27.40;;;10.10;;
19887;SDS011;10106;51.332;12.336;2023-02-11T00:23:50;16.60;;;8.30;;
19887;SDS011;10106;51.332;12.336;2023-02-11T00:26:17;18.60;;;9.20;;
19887;SDS011;10106;51.332;12.336;2023-02-11T00:28:46;25.43;;;9.00;;
19887;SDS011;10106;51.332;12.336;2023-02-11T00:31:13;17.47;;;8.90;;
19887;SDS011;10106;51.332;12.336;2023-02-11T00:33:40;22.40;;;9.37;;
19887;SDS011;10106;51.332;12.336;2023-02-11T00:36:07;22.87;;;8.90;;
19887;SDS011;10106;51.332;12.336;2023-02-11T00:38:45;22.13;;;10.03;;
19887;SDS011;10106;51.332;12.336;2023-02-11T00:41:12;32.53;;;8.40;;
19887;SDS011;10106;51.332;12.336;2023-02-11T00:43:39;19.30;;;9.83;;
19887;SDS011;10106;51.332;12.336;2023-02-11T00:46:05;20.63;;;8.27;;
19887;SDS011;10106;51.332;12.336;2023-02-11T00:48:31;29.63;;;10.17;;
19887;SDS011;10106;51.332;12.336;2023-02-11T00:50:56;20.53;;;9.23;;
19887;SDS011;10106;51.332;12.336;2023-02-11T00:53:22;19.20;;;10.10;;
19887;SDS011;10106;51.332;12.336;2023-02-11T00:55:48;21.20;;;9.67;;
19887;SDS011;10106;51.332;12.336;2023-02-11T00:58:13;26.37;;;10.60;;
19887;SDS011;10106;51.332;12.336;2023-02-11T01:00:39;28.33;;;9.27;;
19887;SDS011;10106;51.332;12.336;2023-02-11T01:03:05;26.00;;;8.83;;
19887;SDS011;10106;51.332;12.336;2023-02-11T01:05:30;15.97;;;8.90;;
19887;SDS011;10106;51.332;12.336;2023-02-11T01:07:56;20.53;;;8.73;;
19887;SDS011;10106;51.332;12.336;2023-02-11T01:10:22;27.73;;;9.27;;
19887;SDS011;10106;51.332;12.336;2023-02-11T01:12:48;24.97;;;7.50;;
19887;SDS011;10106;51.332;12.336;2023-02-11T01:15:14;16.57;;;8.33;;
19887;SDS011;10106;51.332;12.336;2023-02-11T01:17:42;24.43;;;10.80;;
19887;SDS011;10106;51.332;12.336;2023-02-11T01:20:11;18.50;;;7.80;;
19887;SDS011;10106;51.332;12.336;2023-02-11T01:22:39;17.37;;;7.70;;
19887;SDS011;10106;51.332;12.336;2023-02-11T01:25:05;19.80;;;8.80;;
19887;SDS011;10106;51.332;12.336;2023-02-11T01:27:32;24.83;;;8.00;;
19887;SDS011;10106;51.332;12.336;2023-02-11T01:29:58;26.37;;;10.50;;
19887;SDS011;10106;51.332;12.336;2023-02-11T01:32:24;19.60;;;8.30;;
19887;SDS011;10106;51.332;12.336;2023-02-11T01:34:49;17.37;;;7.83;;
19887;SDS011;10106;51.332;12.336;2023-02-11T01:37:15;19.20;;;7.67;;
19887;SDS011;10106;51.332;12.336;2023-02-11T01:39:41;18.63;;;8.90;;
19887;SDS011;10106;51.332;12.336;2023-02-11T01:42:06;13.27;;;8.00;;
19887;SDS011;10106;51.332;12.336;2023-02-11T01:44:36;21.70;;;9.33;;
19887;SDS011;10106;51.332;12.336;2023-02-11T01:47:02;18.83;;;8.70;;
19887;SDS011;10106;51.332;12.336;2023-02-11T01:49:31;23.00;;;9.60;;
19887;SDS011;10106;51.332;12.336;2023-02-11T01:52:08;19.53;;;8.10;;
19887;SDS011;10106;51.332;12.336;2023-02-11T01:54:50;20.47;;;7.60;;
19887;SDS011;10106;51.332;12.336;2023-02-11T01:57:37;17.17;;;7.57;;
19887;SDS011;10106;51.332;12.336;2023-02-11T02:00:08;28.93;;;9.70;;
19887;SDS011;10106;51.332;12.336;2023-02-11T02:02:41;21.27;;;9.10;;
19887;SDS011;10106;51.332;12.336;2023-02-11T02:07:55;20.70;;;8.17;;
19887;SDS011;10106;51.332;12.336;2023-02-11T02:10:24;27.13;;;8.23;;
19887;SDS011;10106;51.332;12.336;2023-02-11T02:12:51;22.43;;;9.30;;
19887;SDS011;10106;51.332;12.336;2023-02-11T02:17:45;22.87;;;8.93;;
19887;SDS011;10106;51.332;12.336;2023-02-11T02:40:17;16.80;;;7.87;;
19887;SDS011;10106;51.332;12.336;2023-02-11T02:42:47;18.90;;;10.27;;
19887;SDS011;10106;51.332;12.336;2023-02-11T02:45:14;16.17;;;8.20;;
19887;SDS011;10106;51.332;12.336;2023-02-11T02:47:41;19.20;;;10.53;;
19887;SDS011;10106;51.332;12.336;2023-02-11T02:50:06;19.40;;;9.53;;
19887;SDS011;10106;51.332;12.336;2023-02-11T03:01:44;25.53;;;9.10;;
19887;SDS011;10106;51.332;12.336;2023-02-11T03:05:15;19.87;;;9.13;;
19887;SDS011;10106;51.332;12.336;2023-02-11T03:07:39;18.73;;;8.83;;
19887;SDS011;10106;51.332;12.336;2023-02-11T03:10:20;25.17;;;10.37;;
19887;SDS011;10106;51.332;12.336;2023-02-11T03:12:55;23.77;;;9.73;;
19887;SDS011;10106;51.332;12.336;2023-02-11T03:15:22;21.40;;;8.93;;
19887;SDS011;10106;51.332;12.336;2023-02-11T03:17:51;21.47;;;10.17;;
19887;SDS011;10106;51.332;12.336;2023-02-11T03:20:21;18.83;;;8.80;;
19887;SDS011;10106;51.332;12.336;2023-02-11T03:22:49;20.90;;;10.13;;
19887;SDS011;10106;51.332;12.336;2023-02-11T03:25:21;16.97;;;8.60;;
19887;SDS011;10106;51.332;12.336;2023-02-11T03:27:54;35.47;;;9.67;;
19887;SDS011;10106;51.332;12.336;2023-02-11T03:30:26;18.17;;;9.40;;
19887;SDS011;10106;51.332;12.336;2023-02-11T03:33:00;28.80;;;9.80;;
19887;SDS011;10106;51.332;12.336;2023-02-11T03:38:42;22.80;;;8.60;;
19887;SDS011;10106;51.332;12.336;2023-02-11T03:41:12;24.67;;;10.80;;
19887;SDS011;10106;51.332;12.336;2023-02-11T03:43:41;22.87;;;10.07;;
19887;SDS011;10106;51.332;12.336;2023-02-11T03:46:10;23.30;;;10.37;;
19887;SDS011;10106;51.332;12.336;2023-02-11T03:48:39;22.57;;;9.53;;
19887;SDS011;10106;51.332;12.336;2023-02-11T03:51:09;26.90;;;10.80;;
19887;SDS011;10106;51.332;12.336;2023-02-11T03:53:37;26.23;;;12.87;;
19887;SDS011;10106;51.332;12.336;2023-02-11T03:56:05;27.10;;;11.20;;
19887;SDS011;10106;51.332;12.336;2023-02-11T03:58:34;18.83;;;9.00;;
19887;SDS011;10106;51.332;12.336;2023-02-11T04:01:03;17.60;;;8.57;;
19887;SDS011;10106;51.332;12.336;2023-02-11T04:03:30;18.03;;;8.53;;
19887;SDS011;10106;51.332;12.336;2023-02-11T04:05:56;18.07;;;8.90;;
19887;SDS011;10106;51.332;12.336;2023-02-11T04:08:22;25.33;;;9.50;;
19887;SDS011;10106;51.332;12.336;2023-02-11T04:10:48;27.43;;;9.83;;
19887;SDS011;10106;51.332;12.336;2023-02-11T04:13:13;24.97;;;9.70;;
19887;SDS011;10106;51.332;12.336;2023-02-11T04:15:39;26.43;;;9.50;;
19887;SDS011;10106;51.332;12.336;2023-02-11T04:18:05;21.30;;;9.67;;
19887;SDS011;10106;51.332;12.336;2023-02-11T04:20:30;26.03;;;11.00;;
19887;SDS011;10106;51.332;12.336;2023-02-11T04:22:56;17.00;;;9.13;;
19887;SDS011;10106;51.332;12.336;2023-02-11T04:25:22;31.77;;;11.20;;
19887;SDS011;10106;51.332;12.336;2023-02-11T04:27:47;19.20;;;9.10;;
19887;SDS011;10106;51.332;12.336;2023-02-11T04:30:13;23.77;;;9.20;;
19887;SDS011;10106;51.332;12.336;2023-02-11T04:32:39;21.60;;;9.57;;
19887;SDS011;10106;51.332;12.336;2023-02-11T04:35:05;23.70;;;9.77;;
19887;SDS011;10106;51.332;12.336;2023-02-11T04:37:31;30.20;;;10.70;;
19887;SDS011;10106;51.332;12.336;2023-02-11T04:39:56;17.70;;;9.00;;
19887;SDS011;10106;51.332;12.336;2023-02-11T04:42:22;24.27;;;8.63;;
19887;SDS011;10106;51.332;12.336;2023-02-11T04:44:48;22.97;;;9.60;;
19887;SDS011;10106;51.332;12.336;2023-02-11T04:47:13;24.00;;;9.93;;
19887;SDS011;10106;51.332;12.336;2023-02-11T04:49:39;26.73;;;12.73;;
19887;SDS011;10106;51.332;12.336;2023-02-11T04:52:05;18.43;;;8.43;;
19887;SDS011;10106;51.332;12.336;2023-02-11T04:54:31;22.27;;;10.10;;
19887;SDS011;10106;51.332;12.336;2023-02-11T04:56:57;19.80;;;9.23;;
19887;SDS011;10106;51.332;12.336;2023-02-11T04:59:23;18.17;;;10.47;;
19887;SDS011;10106;51.332;12.336;2023-02-11T05:01:48;28.47;;;11.60;;
19887;SDS011;10106;51.332;12.336;2023-02-11T05:04:14;26.37;;;10.37;;
19887;SDS011;10106;51.332;12.336;2023-02-11T05:06:40;17.53;;;8.00;;
19887;SDS011;10106;51.332;12.336;2023-02-11T05:09:06;21.90;;;9.70;;
19887;SDS011;10106;51.332;12.336;2023-02-11T05:11:32;27.87;;;9.90;;
19887;SDS011;10106;51.332;12.336;2023-02-11T05:13:58;18.73;;;7.97;;
19887;SDS011;10106;51.332;12.336;2023-02-11T05:16:23;22.13;;;9.43;;
19887;SDS011;10106;51.332;12.336;2023-02-11T05:18:49;18.73;;;7.73;;
19887;SDS011;10106;51.332;12.336;2023-02-11T05:21:16;23.37;;;8.90;;
19887;SDS011;10106;51.332;12.336;2023-02-11T05:23:43;27.20;;;10.00;;
19887;SDS011;10106;51.332;12.336;2023-02-11T05:26:09;23.40;;;8.97;;
19887;SDS011;10106;51.332;12.336;2023-02-11T05:28:35;20.90;;;9.90;;
19887;SDS011;10106;51.332;12.336;2023-02-11T05:31:02;32.13;;;10.63;;
19887;SDS011;10106;51.332;12.336;2023-02-11T05:33:28;22.53;;;10.00;;
19887;SDS011;10106;51.332;12.336;2023-02-11T05:36:01;30.77;;;11.97;;
19887;SDS011;10106;51.332;12.336;2023-02-11T05:38:29;23.33;;;9.63;;
19887;SDS011;10106;51.332;12.336;2023-02-11T05:40:54;26.57;;;10.00;;
19887;SDS011;10106;51.332;12.336;2023-02-11T05:43:22;25.30;;;10.57;;
19887;SDS011;10106;51.332;12.336;2023-02-11T05:45:47;28.03;;;9.60;;
19887;SDS011;10106;51.332;12.336;2023-02-11T05:48:13;26.60;;;10.67;;
19887;SDS011;10106;51.332;12.336;2023-02-11T05:50:39;22.93;;;10.10;;
19887;SDS011;10106;51.332;12.336;2023-02-11T05:53:05;26.83;;;10.60;;
19887;SDS011;10106;51.332;12.336;2023-02-11T05:55:31;22.30;;;11.53;;
19887;SDS011;10106;51.332;12.336;2023-02-11T05:57:57;30.00;;;12.50;;
19887;SDS011;10106;51.332;12.336;2023-02-11T06:05:33;32.10;;;12.80;;
19887;SDS011;10106;51.332;12.336;2023-02-11T06:07:59;30.33;;;10.97;;
19887;SDS011;10106;51.332;12.336;2023-02-11T06:10:24;20.63;;;10.03;;
19887;SDS011;10106;51.332;12.336;2023-02-11T06:12:50;29.23;;;12.60;;
19887;SDS011;10106;51.332;12.336;2023-02-11T06:15:16;28.07;;;10.83;;
19887;SDS011;10106;51.332;12.336;2023-02-11T06:17:42;24.97;;;11.47;;
19887;SDS011;10106;51.332;12.336;2023-02-11T06:20:08;29.00;;;12.27;;
19887;SDS011;10106;51.332;12.336;2023-02-11T06:22:34;33.63;;;10.30;;
19887;SDS011;10106;51.332;12.336;2023-02-11T06:25:00;27.40;;;12.80;;
19887;SDS011;10106;51.332;12.336;2023-02-11T06:27:26;20.60;;;11.37;;
19887;SDS011;10106;51.332;12.336;2023-02-11T06:29:51;26.63;;;10.70;;
19887;SDS011;10106;51.332;12.336;2023-02-11T06:32:17;33.77;;;10.40;;
19887;SDS011;10106;51.332;12.336;2023-02-11T06:34:43;25.67;;;11.43;;
19887;SDS011;10106;51.332;12.336;2023-02-11T06:37:09;26.23;;;12.10;;
19887;SDS011;10106;51.332;12.336;2023-02-11T06:39:35;28.10;;;11.87;;
19887;SDS011;10106;51.332;12.336;2023-02-11T06:42:01;22.40;;;10.03;;
19887;SDS011;10106;51.332;12.336;2023-02-11T06:44:27;19.87;;;10.07;;
19887;SDS011;10106;51.332;12.336;2023-02-11T06:46:52;36.70;;;12.00;;
19887;SDS011;10106;51.332;12.336;2023-02-11T06:49:18;26.93;;;11.77;;
19887;SDS011;10106;51.332;12.336;2023-02-11T06:51:44;32.03;;;12.10;;
19887;SDS011;10106;51.332;12.336;2023-02-11T06:54:10;24.90;;;10.70;;
19887;SDS011;10106;51.332;12.336;2023-02-11T06:56:38;35.87;;;11.77;;
19887;SDS011;10106;51.332;12.336;2023-02-11T06:59:04;35.77;;;10.80;;
19887;SDS011;10106;51.332;12.336;2023-02-11T07:01:30;31.53;;;12.73;;
19887;SDS011;10106;51.332;12.336;2023-02-11T07:03:56;22.50;;;10.00;;
19887;SDS011;10106;51.332;12.336;2023-02-11T07:06:23;33.70;;;12.90;;
19887;SDS011;10106;51.332;12.336;2023-02-11T07:08:52;31.43;;;11.20;;
19887;SDS011;10106;51.332;12.336;2023-02-11T07:11:19;30.07;;;12.07;;
19887;SDS011;10106;51.332;12.336;2023-02-11T07:13:48;29.13;;;12.70;;
19887;SDS011;10106;51.332;12.336;2023-02-11T07:16:15;29.43;;;13.30;;
19887;SDS011;10106;51.332;12.336;2023-02-11T07:18:45;23.90;;;11.80;;
19887;SDS011;10106;51.332;12.336;2023-02-11T07:21:12;24.97;;;11.07;;
19887;SDS011;10106;51.332;12.336;2023-02-11T07:23:39;26.10;;;11.00;;
19887;SDS011;10106;51.332;12.336;2023-02-11T07:26:06;25.37;;;10.47;;
19887;SDS011;10106;51.332;12.336;2023-02-11T07:28:34;24.03;;;11.27;;
19887;SDS011;10106;51.332;12.336;2023-02-11T07:31:14;24.23;;;11.00;;
19887;SDS011;10106;51.332;12.336;2023-02-11T07:33:41;22.93;;;11.03;;
19887;SDS011;10106;51.332;12.336;2023-02-11T07:36:10;26.87;;;11.77;;
19887;SDS011;10106;51.332;12.336;2023-02-11T07:38:37;29.10;;;13.00;;
19887;SDS011;10106;51.332;12.336;2023-02-11T07:41:07;27.30;;;13.27;;
19887;SDS011;10106;51.332;12.336;2023-02-11T07:43:37;24.60;;;11.53;;
19887;SDS011;10106;51.332;12.336;2023-02-11T07:46:09;26.67;;;11.37;;
19887;SDS011;10106;51.332;12.336;2023-02-11T07:48:42;28.77;;;13.57;;
19887;SDS011;10106;51.332;12.336;2023-02-11T07:51:12;22.53;;;11.07;;
19887;SDS011;10106;51.332;12.336;2023-02-11T07:53:39;21.87;;;10.37;;
19887;SDS011;10106;51.332;12.336;2023-02-11T07:56:06;27.87;;;11.43;;
19887;SDS011;10106;51.332;12.336;2023-02-11T07:58:32;26.27;;;11.00;;
19887;SDS011;10106;51.332;12.336;2023-02-11T08:01:03;32.50;;;12.80;;
19887;SDS011;10106;51.332;12.336;2023-02-11T08:03:30;31.10;;;11.63;;
19887;SDS011;10106;51.332;12.336;2023-02-11T08:05:56;24.50;;;11.60;;
19887;SDS011;10106;51.332;12.336;2023-02-11T08:08:21;30.80;;;14.30;;
19887;SDS011;10106;51.332;12.336;2023-02-11T08:10:49;27.57;;;11.90;;
19887;SDS011;10106;51.332;12.336;2023-02-11T08:13:15;28.93;;;12.27;;
19887;SDS011;10106;51.332;12.336;2023-02-11T08:15:43;36.03;;;12.33;;
19887;SDS011;10106;51.332;12.336;2023-02-11T08:18:09;27.73;;;11.03;;
19887;SDS011;10106;51.332;12.336;2023-02-11T08:20:34;28.03;;;10.20;;
19887;SDS011;10106;51.332;12.336;2023-02-11T08:23:00;34.97;;;10.33;;
19887;SDS011;10106;51.332;12.336;2023-02-11T08:25:26;31.93;;;11.67;;
19887;SDS011;10106;51.332;12.336;2023-02-11T08:27:54;28.50;;;10.50;;
19887;SDS011;10106;51.332;12.336;2023-02-11T08:30:20;25.97;;;10.60;;
19887;SDS011;10106;51.332;12.336;2023-02-11T08:32:45;26.93;;;12.67;;
19887;SDS011;10106;51.332;12.336;2023-02-11T08:35:11;27.73;;;11.67;;
19887;SDS011;10106;51.332;12.336;2023-02-11T08:37:37;32.90;;;12.57;;
19887;SDS011;10106;51.332;12.336;2023-02-11T08:40:03;23.87;;;11.17;;
19887;SDS011;10106;51.332;12.336;2023-02-11T08:42:29;44.10;;;13.80;;
19887;SDS011;10106;51.332;12.336;2023-02-11T08:44:55;35.03;;;13.10;;
19887;SDS011;10106;51.332;12.336;2023-02-11T08:47:20;30.30;;;13.07;;
19887;SDS011;10106;51.332;12.336;2023-02-11T08:49:46;29.43;;;11.73;;
19887;SDS011;10106;51.332;12.336;2023-02-11T08:52:12;24.50;;;10.90;;
19887;SDS011;10106;51.332;12.336;2023-02-11T08:54:37;22.40;;;11.57;;
19887;SDS011;10106;51.332;12.336;2023-02-11T08:57:03;26.57;;;12.97;;
19887;SDS011;10106;51.332;12.336;2023-02-11T08:59:29;22.90;;;11.57;;
19887;SDS011;10106;51.332;12.336;2023-02-11T09:01:55;29.00;;;10.73;;
19887;SDS011;10106;51.332;12.336;2023-02-11T09:04:21;34.37;;;12.40;;
19887;SDS011;10106;51.332;12.336;2023-02-11T09:06:46;27.43;;;12.43;;
19887;SDS011;10106;51.332;12.336;2023-02-11T09:09:13;27.40;;;13.20;;
19887;SDS011;10106;51.332;12.336;2023-02-11T09:11:42;28.73;;;13.53;;
19887;SDS011;10106;51.332;12.336;2023-02-11T09:14:13;25.17;;;11.33;;
19887;SDS011;10106;51.332;12.336;2023-02-11T09:16:42;28.70;;;12.87;;
19887;SDS011;10106;51.332;12.336;2023-02-11T09:19:08;26.60;;;10.53;;
19887;SDS011;10106;51.332;12.336;2023-02-11T09:21:34;25.70;;;10.40;;
19887;SDS011;10106;51.332;12.336;2023-02-11T09:23:59;27.13;;;11.60;;
19887;SDS011;10106;51.332;12.336;2023-02-11T09:26:30;25.40;;;11.93;;
19887;SDS011;10106;51.332;12.336;2023-02-11T09:28:57;23.77;;;13.13;;
19887;SDS011;10106;51.332;12.336;2023-02-11T09:31:24;31.17;;;13.10;;
19887;SDS011;10106;51.332;12.336;2023-02-11T09:33:52;25.73;;;12.60;;
19887;SDS011;10106;51.332;12.336;2023-02-11T09:36:20;30.00;;;12.53;;
19887;SDS011;10106;51.332;12.336;2023-02-11T09:38:51;29.13;;;11.93;;
19887;SDS011;10106;51.332;12.336;2023-02-11T09:43:58;29.90;;;13.20;;
19887;SDS011;10106;51.332;12.336;2023-02-11T09:46:29;30.97;;;13.17;;
19887;SDS011;10106;51.332;12.336;2023-02-11T09:48:59;27.27;;;13.30;;
19887;SDS011;10106;51.332;12.336;2023-02-11T09:51:38;20.67;;;11.83;;
19887;SDS011;10106;51.332;12.336;2023-02-11T09:57:01;26.30;;;11.07;;
19887;SDS011;10106;51.332;12.336;2023-02-11T09:59:27;30.30;;;11.90;;
19887;SDS011;10106;51.332;12.336;2023-02-11T10:01:57;22.80;;;11.70;;
19887;SDS011;10106;51.332;12.336;2023-02-11T10:05:11;23.33;;;12.33;;
19887;SDS011;10106;51.332;12.336;2023-02-11T10:07:56;22.20;;;11.10;;
19887;SDS011;10106;51.332;12.336;2023-02-11T10:13:24;29.17;;;12.17;;
19887;SDS011;10106;51.332;12.336;2023-02-11T10:24:17;26.67;;;11.60;;
19887;SDS011;10106;51.332;12.336;2023-02-11T10:26:44;25.03;;;12.03;;
19887;SDS011;10106;51.332;12.336;2023-02-11T10:29:34;27.90;;;11.80;;
19887;SDS011;10106;51.332;12.336;2023-02-11T10:32:14;27.00;;;11.30;;
19887;SDS011;10106;51.332;12.336;2023-02-11T10:35:09;30.53;;;13.17;;
19887;SDS011;10106;51.332;12.336;2023-02-11T10:37:43;25.60;;;12.20;;
19887;SDS011;10106;51.332;12.336;2023-02-11T10:40:19;26.63;;;10.53;;
19887;SDS011;10106;51.332;12.336;2023-02-11T10:42:51;25.77;;;9.73;;
19887;SDS011;10106;51.332;12.336;2023-02-11T10:45:38;26.60;;;12.07;;
19887;SDS011;10106;51.332;12.336;2023-02-11T10:53:39;21.37;;;11.10;;
19887;SDS011;10106;51.332;12.336;2023-02-11T10:56:05;21.10;;;9.40;;
19887;SDS011;10106;51.332;12.336;2023-02-11T10:58:36;21.70;;;10.13;;
19887;SDS011;10106;51.332;12.336;2023-02-11T11:01:18;27.10;;;11.83;;
19887;SDS011;10106;51.332;12.336;2023-02-11T11:03:50;27.67;;;13.07;;
19887;SDS011;10106;51.332;12.336;2023-02-11T11:06:26;25.13;;;11.43;;
19887;SDS011;10106;51.332;12.336;2023-02-11T11:08:55;34.40;;;12.00;;
19887;SDS011;10106;51.332;12.336;2023-02-11T11:11:21;24.70;;;11.60;;
19887;SDS011;10106;51.332;12.336;2023-02-11T11:16:28;32.57;;;11.70;;
19887;SDS011;10106;51.332;12.336;2023-02-11T11:21:35;24.87;;;13.10;;
19887;SDS011;10106;51.332;12.336;2023-02-11T11:24:20;27.60;;;12.50;;
19887;SDS011;10106;51.332;12.336;2023-02-11T11:26:59;23.37;;;10.80;;
19887;SDS011;10106;51.332;12.336;2023-02-11T11:32:19;24.33;;;11.03;;
19887;SDS011;10106;51.332;12.336;2023-02-11T11:34:52;25.93;;;12.03;;
19887;SDS011;10106;51.332;12.336;2023-02-11T11:37:25;30.50;;;10.90;;
19887;SDS011;10106;51.332;12.336;2023-02-11T11:40:03;23.50;;;10.37;;
19887;SDS011;10106;51.332;12.336;2023-02-11T11:42:35;29.23;;;12.67;;
19887;SDS011;10106;51.332;12.336;2023-02-11T11:47:47;28.90;;;11.40;;
19887;SDS011;10106;51.332;12.336;2023-02-11T11:55:49;21.83;;;10.13;;
19887;SDS011;10106;51.332;12.336;2023-02-11T11:58:23;20.30;;;11.13;;
19887;SDS011;10106;51.332;12.336;2023-02-11T12:00:55;21.47;;;10.27;;
19887;SDS011;10106;51.332;12.336;2023-02-11T12:06:29;27.53;;;11.40;;
19887;SDS011;10106;51.332;12.336;2023-02-11T12:09:24;22.97;;;9.83;;
19887;SDS011;10106;51.332;12.336;2023-02-11T12:12:10;22.80;;;11.20;;
19887;SDS011;10106;51.332;12.336;2023-02-11T12:15:33;30.23;;;12.47;;
19887;SDS011;10106;51.332;12.336;2023-02-11T12:23:57;25.10;;;10.60;;
19887;SDS011;10106;51.332;12.336;2023-02-11T12:26:55;24.80;;;10.77;;
19887;SDS011;10106;51.332;12.336;2023-02-11T12:38:35;26.83;;;10.50;;
19887;SDS011;10106;51.332;12.336;2023-02-11T12:55:21;23.13;;;9.40;;
19887;SDS011;10106;51.332;12.336;2023-02-11T12:57:49;28.63;;;12.33;;
19887;SDS011;10106;51.332;12.336;2023-02-11T13:02:48;22.10;;;11.70;;
19887;SDS011;10106;51.332;12.336;2023-02-11T13:05:47;25.33;;;10.17;;
19887;SDS011;10106;51.332;12.336;2023-02-11T13:11:19;33.83;;;11.70;;
19887;SDS011;10106;51.332;12.336;2023-02-11T13:13:53;29.60;;;11.27;;
19887;SDS011;10106;51.332;12.336;2023-02-11T13:21:48;17.87;;;9.67;;
19887;SDS011;10106;51.332;12.336;2023-02-11T13:26:59;25.80;;;10.67;;
19887;SDS011;10106;51.332;12.336;2023-02-11T13:29:37;17.90;;;9.33;;
19887;SDS011;10106;51.332;12.336;2023-02-11T13:32:08;28.47;;;10.77;;
19887;SDS011;10106;51.332;12.336;2023-02-11T13:37:27;23.93;;;11.23;;
19887;SDS011;10106;51.332;12.336;2023-02-11T13:40:01;20.97;;;10.40;;
19887;SDS011;10106;51.332;12.336;2023-02-11T13:42:28;23.57;;;10.57;;
19887;SDS011;10106;51.332;12.336;2023-02-11T13:44:55;24.50;;;11.47;;
19887;SDS011;10106;51.332;12.336;2023-02-11T13:47:31;22.43;;;11.53;;
19887;SDS011;10106;51.332;12.336;2023-02-11T13:49:59;21.10;;;10.03;;
19887;SDS011;10106;51.332;12.336;2023-02-11T13:52:30;22.77;;;10.30;;
19887;SDS011;10106;51.332;12.336;2023-02-11T13:55:23;17.97;;;9.60;;
19887;SDS011;10106;51.332;12.336;2023-02-11T13:58:35;21.77;;;10.33;;
19887;SDS011;10106;51.332;12.336;2023-02-11T14:00:42;24.70;;;10.50;;
19887;SDS011;10106;51.332;12.336;2023-02-11T14:11:53;20.80;;;9.63;;
19887;SDS011;10106;51.332;12.336;2023-02-11T14:17:31;31.23;;;9.40;;
19887;SDS011;10106;51.332;12.336;2023-02-11T14:19:58;20.53;;;10.00;;
19887;SDS011;10106;51.332;12.336;2023-02-11T14:24:59;23.10;;;10.40;;
19887;SDS011;10106;51.332;12.336;2023-02-11T14:35:58;24.13;;;10.40;;
19887;SDS011;10106;51.332;12.336;2023-02-11T14:41:31;19.77;;;9.33;;
19887;SDS011;10106;51.332;12.336;2023-02-11T14:44:05;31.13;;;9.50;;
19887;SDS011;10106;51.332;12.336;2023-02-11T14:46:52;22.03;;;9.53;;
19887;SDS011;10106;51.332;12.336;2023-02-11T14:52:02;22.47;;;10.23;;
19887;SDS011;10106;51.332;12.336;2023-02-11T14:54:41;22.00;;;11.20;;
19887;SDS011;10106;51.332;12.336;2023-02-11T14:57:15;22.00;;;9.60;;
19887;SDS011;10106;51.332;12.336;2023-02-11T14:59:54;21.93;;;9.47;;
19887;SDS011;10106;51.332;12.336;2023-02-11T15:02:25;24.17;;;10.50;;
19887;SDS011;10106;51.332;12.336;2023-02-11T15:05:13;25.63;;;10.53;;
19887;SDS011;10106;51.332;12.336;2023-02-11T15:07:47;22.87;;;9.30;;
19887;SDS011;10106;51.332;12.336;2023-02-11T15:10:20;20.37;;;9.07;;
19887;SDS011;10106;51.332;12.336;2023-02-11T15:12:51;21.50;;;9.80;;
19887;SDS011;10106;51.332;12.336;2023-02-11T15:15:18;24.70;;;10.07;;
19887;SDS011;10106;51.332;12.336;2023-02-11T15:17:43;19.97;;;9.10;;
19887;SDS011;10106;51.332;12.336;2023-02-11T15:20:21;18.27;;;9.50;;
19887;SDS011;10106;51.332;12.336;2023-02-11T15:22:53;20.40;;;9.37;;
19887;SDS011;10106;51.332;12.336;2023-02-11T15:25:22;18.27;;;9.00;;
19887;SDS011;10106;51.332;12.336;2023-02-11T15:27:49;26.83;;;10.10;;
19887;SDS011;10106;51.332;12.336;2023-02-11T15:32:45;22.00;;;9.80;;
19887;SDS011;10106;51.332;12.336;2023-02-11T15:35:11;18.63;;;10.00;;
19887;SDS011;10106;51.332;12.336;2023-02-11T15:37:38;21.80;;;9.87;;
19887;SDS011;10106;51.332;12.336;2023-02-11T15:40:18;20.33;;;9.13;;
19887;SDS011;10106;51.332;12.336;2023-02-11T15:42:54;13.00;;;8.17;;
19887;SDS011;10106;51.332;12.336;2023-02-11T15:45:33;17.47;;;8.83;;
19887;SDS011;10106;51.332;12.336;2023-02-11T15:50:33;22.37;;;10.70;;
19887;SDS011;10106;51.332;12.336;2023-02-11T15:53:12;21.80;;;9.67;;
19887;SDS011;10106;51.332;12.336;2023-02-11T15:58:55;25.37;;;8.97;;
19887;SDS011;10106;51.332;12.336;2023-02-11T16:01:33;15.77;;;8.20;;
19887;SDS011;10106;51.332;12.336;2023-02-11T16:04:01;20.20;;;8.73;;
19887;SDS011;10106;51.332;12.336;2023-02-11T16:06:35;17.23;;;7.97;;
19887;SDS011;10106;51.332;12.336;2023-02-11T16:11:52;20.03;;;8.37;;
19887;SDS011;10106;51.332;12.336;2023-02-11T16:14:22;14.77;;;8.20;;
19887;SDS011;10106;51.332;12.336;2023-02-11T16:17:12;22.33;;;7.63;;
19887;SDS011;10106;51.332;12.336;2023-02-11T16:19:45;20.70;;;7.23;;
19887;SDS011;10106;51.332;12.336;2023-02-11T16:22:17;14.47;;;7.27;;
19887;SDS011;10106;51.332;12.336;2023-02-11T16:24:47;20.20;;;6.80;;
19887;SDS011;10106;51.332;12.336;2023-02-11T16:27:22;18.80;;;6.90;;
19887;SDS011;10106;51.332;12.336;2023-02-11T16:29:52;21.37;;;7.60;;
19887;SDS011;10106;51.332;12.336;2023-02-11T16:32:19;15.77;;;7.53;;
19887;SDS011;10106;51.332;12.336;2023-02-11T16:34:49;17.77;;;7.60;;
19887;SDS011;10106;51.332;12.336;2023-02-11T16:37:16;26.40;;;12.83;;
19887;SDS011;10106;51.332;12.336;2023-02-11T16:39:42;19.40;;;8.13;;
19887;SDS011;10106;51.332;12.336;2023-02-11T16:42:09;12.37;;;7.20;;
19887;SDS011;10106;51.332;12.336;2023-02-11T16:44:35;15.27;;;7.00;;
19887;SDS011;10106;51.332;12.336;2023-02-11T16:47:02;13.63;;;7.47;;
19887;SDS011;10106;51.332;12.336;2023-02-11T16:51:56;11.70;;;6.93;;
19887;SDS011;10106;51.332;12.336;2023-02-11T16:54:25;16.53;;;7.50;;
19887;SDS011;10106;51.332;12.336;2023-02-11T16:56:51;19.23;;;7.70;;
19887;SDS011;10106;51.332;12.336;2023-02-11T16:59:18;19.60;;;8.77;;
19887;SDS011;10106;51.332;12.336;2023-02-11T17:01:43;20.43;;;7.43;;
19887;SDS011;10106;51.332;12.336;2023-02-11T17:04:11;21.00;;;7.37;;
19887;SDS011;10106;51.332;12.336;2023-02-11T17:06:42;18.30;;;7.20;;
19887;SDS011;10106;51.332;12.336;2023-02-11T17:09:22;17.17;;;7.20;;
19887;SDS011;10106;51.332;12.336;2023-02-11T17:11:49;16.63;;;7.23;;
19887;SDS011;10106;51.332;12.336;2023-02-11T17:14:16;20.27;;;7.07;;
19887;SDS011;10106;51.332;12.336;2023-02-11T17:16:43;24.30;;;7.90;;
19887;SDS011;10106;51.332;12.336;2023-02-11T17:19:14;18.23;;;7.70;;
19887;SDS011;10106;51.332;12.336;2023-02-11T17:21:41;14.30;;;6.90;;